createdAt,value
2023-03-19T00:01:31.603Z,77.40
2023-03-19T00:03:58.159Z,77.35
2023-03-19T00:06:25.452Z,77.27
2023-03-19T00:08:52.169Z,77.24
2023-03-19T00:11:18.623Z,76.94
2023-03-19T00:13:45.335Z,76.75
2023-03-19T00:16:11.828Z,76.89
2023-03-19T00:18:38.317Z,76.83
2023-03-19T00:21:05.132Z,76.64
2023-03-19T00:23:31.776Z,77.43
2023-03-19T00:25:58.180Z,78.04
2023-03-19T00:28:24.662Z,78.63
2023-03-19T00:30:51.146Z,79.15
2023-03-19T00:33:17.622Z,79.44
2023-03-19T00:35:44.105Z,79.63
2023-03-19T00:38:10.617Z,79.83
2023-03-19T00:40:37.197Z,80.17
2023-03-19T00:43:03.785Z,80.05
2023-03-19T00:45:30.945Z,80.09
2023-03-19T00:47:57.826Z,80.37
2023-03-19T00:50:25.323Z,80.49
2023-03-19T00:52:52.352Z,80.60
2023-03-19T00:55:18.892Z,80.66
2023-03-19T00:57:45.991Z,80.90
2023-03-19T01:00:12.681Z,80.71
2023-03-19T01:02:39.139Z,81.16
2023-03-19T01:05:06.195Z,81.56
2023-03-19T01:07:32.992Z,82.13
2023-03-19T01:09:59.401Z,82.00
2023-03-19T01:12:26.274Z,82.05
2023-03-19T01:14:52.710Z,82.03
2023-03-19T01:17:19.127Z,81.99
2023-03-19T01:19:45.968Z,82.07
2023-03-19T01:22:12.977Z,82.02
2023-03-19T01:24:39.385Z,81.94
2023-03-19T01:27:06.002Z,82.07
2023-03-19T01:29:32.431Z,82.22
2023-03-19T01:31:58.853Z,82.07
2023-03-19T01:34:25.301Z,82.16
2023-03-19T01:36:52.495Z,82.12
2023-03-19T01:39:19.134Z,82.21
2023-03-19T01:41:45.642Z,82.23
2023-03-19T01:44:31.163Z,82.43
2023-03-19T01:46:58.996Z,82.73
2023-03-19T01:49:26.374Z,82.59
2023-03-19T01:51:53.289Z,82.64
2023-03-19T01:54:21.892Z,82.71
2023-03-19T01:56:52.366Z,82.91
2023-03-19T01:59:33.872Z,83.13
2023-03-19T02:02:12.111Z,83.25
2023-03-19T02:04:39.300Z,83.56
2023-03-19T02:07:06.588Z,83.98
2023-03-19T02:09:33.216Z,84.10
2023-03-19T02:12:01.680Z,84.20
2023-03-19T02:14:28.140Z,84.58
2023-03-19T02:16:54.951Z,84.63
2023-03-19T02:19:38.390Z,84.59
2023-03-19T02:22:05.102Z,84.63
2023-03-19T02:24:39.125Z,84.99
2023-03-19T02:27:08.057Z,85.12
2023-03-19T02:29:34.779Z,85.29
2023-03-19T02:32:02.670Z,85.47
2023-03-19T02:34:40.830Z,85.18
2023-03-19T02:37:12.547Z,85.47
2023-03-19T02:39:44.201Z,85.33
2023-03-19T02:42:11.897Z,85.48
2023-03-19T02:44:38.422Z,85.34
2023-03-19T02:47:04.952Z,85.52
2023-03-19T02:49:31.398Z,85.10
2023-03-19T02:51:57.856Z,85.03
2023-03-19T02:54:24.291Z,85.44
2023-03-19T02:56:52.347Z,85.90
2023-03-19T02:59:19.450Z,86.64
2023-03-19T03:01:45.890Z,87.40
2023-03-19T03:04:12.406Z,87.63
2023-03-19T03:06:38.826Z,87.44
2023-03-19T03:09:05.465Z,87.66
2023-03-19T03:11:31.886Z,88.11
2023-03-19T03:13:58.296Z,88.69
2023-03-19T03:16:25.764Z,88.98
2023-03-19T03:18:52.233Z,88.92
2023-03-19T03:21:21.264Z,89.23
2023-03-19T03:23:48.546Z,89.91
2023-03-19T03:26:15.123Z,90.00
2023-03-19T03:28:41.555Z,90.21
2023-03-19T03:31:08.945Z,90.35
2023-03-19T03:33:36.306Z,91.11
2023-03-19T03:36:02.952Z,91.76
2023-03-19T03:38:29.375Z,91.84
2023-03-19T03:40:55.793Z,92.20
2023-03-19T03:43:22.221Z,92.40
2023-03-19T03:45:48.897Z,92.74
2023-03-19T03:48:15.687Z,92.67
2023-03-19T03:50:42.196Z,93.08
2023-03-19T03:53:08.776Z,92.95
2023-03-19T03:55:35.299Z,93.59
2023-03-19T03:58:01.825Z,93.73
2023-03-19T04:00:28.720Z,94.05
2023-03-19T04:02:55.900Z,94.40
2023-03-19T04:05:22.639Z,94.37
2023-03-19T04:07:49.057Z,94.45
2023-03-19T04:10:15.516Z,94.26
2023-03-19T04:12:41.984Z,94.93
2023-03-19T04:15:10.875Z,94.77
2023-03-19T04:17:37.345Z,94.74
2023-03-19T04:20:04.762Z,94.71
2023-03-19T04:22:31.649Z,94.52
2023-03-19T04:24:58.051Z,94.80
2023-03-19T04:27:24.512Z,95.08
2023-03-19T04:29:51.070Z,95.12
2023-03-19T04:32:17.660Z,95.11
2023-03-19T04:34:44.085Z,94.96
2023-03-19T04:37:10.583Z,95.27
2023-03-19T04:39:37.650Z,95.09
2023-03-19T04:42:04.534Z,95.37
2023-03-19T04:44:31.520Z,95.42
2023-03-19T04:46:58.036Z,95.53
2023-03-19T04:49:24.578Z,95.89
2023-03-19T04:51:51.513Z,95.96
2023-03-19T04:54:17.956Z,96.02
2023-03-19T04:56:44.442Z,96.60
2023-03-19T04:59:10.862Z,96.75
2023-03-19T05:01:38.060Z,96.61
2023-03-19T05:04:04.721Z,97.19
2023-03-19T05:06:32.147Z,96.86
2023-03-19T05:08:58.567Z,97.67
2023-03-19T05:11:25.926Z,97.24
2023-03-19T05:13:52.427Z,97.19
2023-03-19T05:16:18.906Z,97.33
2023-03-19T05:18:45.321Z,97.35
2023-03-19T05:21:12.716Z,97.08
2023-03-19T05:23:39.445Z,97.23
2023-03-19T05:26:06.662Z,97.58
2023-03-19T05:28:33.278Z,97.29
2023-03-19T05:31:01.006Z,97.16
2023-03-19T05:33:27.489Z,96.90
2023-03-19T05:35:53.937Z,96.73
2023-03-19T05:38:20.356Z,96.54
2023-03-19T05:40:46.873Z,96.30
2023-03-19T05:43:13.299Z,95.71
2023-03-19T05:45:40.233Z,95.62
2023-03-19T05:48:06.697Z,95.12
2023-03-19T05:50:33.955Z,95.13
2023-03-19T05:53:00.498Z,95.49
2023-03-19T05:55:26.905Z,95.73
2023-03-19T05:57:53.326Z,95.76
2023-03-19T06:00:20.068Z,95.90
2023-03-19T06:02:46.941Z,96.08
2023-03-19T06:05:13.422Z,95.83
2023-03-19T06:07:39.855Z,95.47
2023-03-19T06:10:06.808Z,95.02
2023-03-19T06:12:33.229Z,94.83
2023-03-19T06:14:59.630Z,94.33
2023-03-19T06:17:26.048Z,94.34
2023-03-19T06:19:52.449Z,94.11
2023-03-19T06:22:18.869Z,93.59
2023-03-19T06:24:45.276Z,93.46
2023-03-19T06:27:11.817Z,93.27
2023-03-19T06:29:38.250Z,92.97
2023-03-19T06:32:04.909Z,93.56
2023-03-19T06:34:31.341Z,93.80
2023-03-19T06:36:57.847Z,94.22
2023-03-19T06:39:24.462Z,94.29
2023-03-19T06:41:51.321Z,94.25
2023-03-19T06:44:17.740Z,93.99
2023-03-19T06:46:44.265Z,93.77
2023-03-19T06:49:10.920Z,93.72
2023-03-19T06:51:37.360Z,93.32
2023-03-19T06:54:03.861Z,93.43
2023-03-19T06:56:30.325Z,93.45
2023-03-19T06:58:56.738Z,93.42
2023-03-19T07:01:23.305Z,93.19
2023-03-19T07:03:50.031Z,93.39
2023-03-19T07:06:16.669Z,93.25
2023-03-19T07:08:46.471Z,93.01
2023-03-19T07:11:13.610Z,93.13
2023-03-19T07:13:40.248Z,92.47
2023-03-19T07:16:07.269Z,92.17
2023-03-19T07:18:33.746Z,92.17
2023-03-19T07:21:00.290Z,92.03
2023-03-19T07:23:26.728Z,92.38
2023-03-19T07:25:53.157Z,92.34
2023-03-19T07:28:19.580Z,91.77
2023-03-19T07:30:46.093Z,91.80
2023-03-19T07:33:12.581Z,91.71
2023-03-19T07:35:39.089Z,91.66
2023-03-19T07:38:05.557Z,91.30
2023-03-19T07:40:32.377Z,91.43
2023-03-19T07:42:58.967Z,91.43
2023-03-19T07:45:25.507Z,91.36
2023-03-19T07:47:52.562Z,90.92
2023-03-19T07:50:19.027Z,90.03
2023-03-19T07:52:47.584Z,89.69
2023-03-19T07:55:14.742Z,89.18
2023-03-19T07:57:41.206Z,89.06
2023-03-19T08:00:08.332Z,88.81
2023-03-19T08:02:34.949Z,88.28
2023-03-19T08:05:02.316Z,87.74
2023-03-19T08:07:28.745Z,87.42
2023-03-19T08:09:55.155Z,87.22
2023-03-19T08:12:21.591Z,86.85
2023-03-19T08:14:47.988Z,85.87
2023-03-19T08:17:14.404Z,85.49
2023-03-19T08:19:40.799Z,85.64
2023-03-19T08:22:07.250Z,85.65
2023-03-19T08:24:33.729Z,85.33
2023-03-19T08:27:00.506Z,85.11
2023-03-19T08:29:27.191Z,85.01
2023-03-19T08:31:54.505Z,84.48
2023-03-19T08:34:21.888Z,84.23
2023-03-19T08:36:48.785Z,83.88
2023-03-19T08:39:15.641Z,83.32
2023-03-19T08:41:42.202Z,82.41
2023-03-19T08:44:08.609Z,82.31
2023-03-19T08:46:35.063Z,81.64
2023-03-19T08:49:01.563Z,81.46
2023-03-19T08:51:30.471Z,81.51
2023-03-19T08:53:56.880Z,80.76
2023-03-19T08:56:23.316Z,80.47
2023-03-19T08:58:49.750Z,80.40
2023-03-19T09:01:16.163Z,80.09
2023-03-19T09:03:43.676Z,79.52
2023-03-19T09:06:11.803Z,79.90
2023-03-19T09:08:38.608Z,79.60
2023-03-19T09:11:05.735Z,79.41
2023-03-19T09:13:32.696Z,79.25
2023-03-19T09:15:59.265Z,79.81
2023-03-19T09:18:25.855Z,78.60
2023-03-19T09:20:55.749Z,78.33
2023-03-19T09:23:22.801Z,78.06
2023-03-19T09:25:49.423Z,77.59
2023-03-19T09:28:16.081Z,77.15
2023-03-19T09:30:43.342Z,77.30
2023-03-19T09:33:10.008Z,77.13
2023-03-19T09:35:39.669Z,77.02
2023-03-19T09:38:06.281Z,76.90
2023-03-19T09:40:39.234Z,76.46
2023-03-19T09:43:13.570Z,75.95
2023-03-19T09:45:39.981Z,75.76
2023-03-19T09:48:19.970Z,75.40
2023-03-19T09:50:47.546Z,74.09
2023-03-19T09:53:29.213Z,73.72
2023-03-19T09:55:57.628Z,73.28
2023-03-19T09:58:35.463Z,73.06
2023-03-19T10:01:02.804Z,72.73
2023-03-19T10:03:39.285Z,72.39
2023-03-19T10:06:17.985Z,71.30
2023-03-19T10:09:19.660Z,70.76
2023-03-19T10:12:12.583Z,70.51
2023-03-19T10:14:43.380Z,69.70
2023-03-19T10:17:16.973Z,69.95
2023-03-19T10:19:47.118Z,68.97
2023-03-19T10:22:21.746Z,68.27
2023-03-19T10:24:48.861Z,68.10
2023-03-19T10:27:18.089Z,67.68
2023-03-19T10:29:44.720Z,67.22
2023-03-19T10:32:20.537Z,66.85
2023-03-19T10:34:49.052Z,66.99
2023-03-19T10:37:20.695Z,66.00
2023-03-19T10:39:48.985Z,66.13
2023-03-19T10:42:46.324Z,65.81
2023-03-19T10:45:21.470Z,66.23
2023-03-19T10:47:47.970Z,66.54
2023-03-19T10:50:40.298Z,66.41
2023-03-19T10:53:24.411Z,66.39
2023-03-19T10:55:56.086Z,66.40
2023-03-19T10:58:26.191Z,66.07
2023-03-19T11:01:04.434Z,66.12
2023-03-19T11:03:39.700Z,66.11
2023-03-19T11:06:37.607Z,65.46
2023-03-19T11:09:10.688Z,65.43
2023-03-19T11:11:50.581Z,65.34
2023-03-19T11:14:46.430Z,64.19
2023-03-19T11:17:18.138Z,64.05
2023-03-19T11:19:56.706Z,64.12
2023-03-19T11:22:31.616Z,64.06
2023-03-19T11:25:03.994Z,63.95
2023-03-19T11:27:35.193Z,63.97
2023-03-19T11:30:04.272Z,63.85
2023-03-19T11:32:52.122Z,63.70
2023-03-19T11:35:37.784Z,64.06
2023-03-19T11:38:05.053Z,63.25
2023-03-19T11:41:02.096Z,62.80
2023-03-19T11:43:47.137Z,62.12
2023-03-19T11:46:39.208Z,61.78
2023-03-19T11:49:25.082Z,61.35
2023-03-19T11:51:57.009Z,60.88
2023-03-19T11:54:31.649Z,60.36
2023-03-19T11:57:04.578Z,59.91
2023-03-19T11:59:47.885Z,59.79
2023-03-19T12:02:17.194Z,59.66
2023-03-19T12:05:02.310Z,59.65
2023-03-19T12:07:50.675Z,59.62
2023-03-19T12:10:24.192Z,59.62
2023-03-19T12:13:02.829Z,59.40
2023-03-19T12:15:52.990Z,59.06
2023-03-19T12:18:46.069Z,59.31
2023-03-19T12:21:46.755Z,58.91
2023-03-19T12:25:01.600Z,58.47
2023-03-19T12:27:36.478Z,58.56
2023-03-19T12:30:13.415Z,57.97
2023-03-19T12:32:51.638Z,57.50
2023-03-19T12:35:21.396Z,57.43
2023-03-19T12:37:59.886Z,57.41
2023-03-19T12:40:30.816Z,57.38
2023-03-19T12:42:58.707Z,57.10
2023-03-19T12:45:30.407Z,56.67
2023-03-19T12:48:02.651Z,56.42
2023-03-19T12:50:31.280Z,56.00
2023-03-19T12:52:58.609Z,55.58
2023-03-19T12:55:37.650Z,55.33
2023-03-19T12:58:09.237Z,54.79
2023-03-19T13:00:53.566Z,54.69
2023-03-19T13:03:25.436Z,53.82
2023-03-19T13:06:08.684Z,53.70
2023-03-19T13:08:42.397Z,53.85
2023-03-19T13:11:13.955Z,54.16
2023-03-19T13:14:02.164Z,53.80
2023-03-19T13:16:43.965Z,53.82
2023-03-19T13:19:18.053Z,53.82
2023-03-19T13:21:46.549Z,54.00
2023-03-19T13:24:24.776Z,54.09
2023-03-19T13:26:52.640Z,54.27
2023-03-19T13:29:22.599Z,54.18
2023-03-19T13:31:49.495Z,54.25
2023-03-19T13:34:26.585Z,54.50
2023-03-19T13:40:49.138Z,54.65
2023-03-19T13:46:57.611Z,55.06
2023-03-19T13:49:29.719Z,55.60
2023-03-19T13:51:59.728Z,54.84
2023-03-19T13:54:35.253Z,54.88
2023-03-19T13:57:02.313Z,55.15
2023-03-19T13:59:32.888Z,55.14
2023-03-19T14:02:00.444Z,54.59
2023-03-19T14:04:30.937Z,53.24
2023-03-19T14:07:09.235Z,53.48
2023-03-19T14:09:39.177Z,53.38
2023-03-19T14:12:20.849Z,53.80
2023-03-19T14:15:07.427Z,53.93
2023-03-19T14:17:41.978Z,54.63
2023-03-19T14:20:12.670Z,55.29
2023-03-19T14:22:41.290Z,55.26
2023-03-19T14:25:20.276Z,55.62
2023-03-19T14:27:51.423Z,55.36
2023-03-19T14:30:46.762Z,56.19
2023-03-19T14:33:18.472Z,56.60
2023-03-19T14:35:46.145Z,57.06
2023-03-19T14:38:37.113Z,57.10
2023-03-19T14:41:22.180Z,57.65
2023-03-19T14:44:05.732Z,57.97
2023-03-19T14:47:01.514Z,57.95
2023-03-19T14:49:51.301Z,57.47
2023-03-19T14:52:31.805Z,57.42
2023-03-19T14:55:03.564Z,57.32
2023-03-19T14:57:34.699Z,57.68
2023-03-19T15:00:02.041Z,57.85
2023-03-19T15:02:43.539Z,58.07
2023-03-19T15:05:29.329Z,58.11
2023-03-19T15:08:00.158Z,57.92
2023-03-19T15:10:34.433Z,57.36
2023-03-19T15:13:25.789Z,57.13
2023-03-19T15:16:07.169Z,56.95
2023-03-19T15:18:35.849Z,56.84
2023-03-19T15:21:03.320Z,57.03
2023-03-19T15:23:30.900Z,57.38
2023-03-19T15:26:03.024Z,57.96
2023-03-19T15:28:37.561Z,58.00
2023-03-19T15:31:26.815Z,58.41
2023-03-19T15:33:52.776Z,58.74
2023-03-19T15:36:24.612Z,58.63
2023-03-19T15:39:09.556Z,58.86
2023-03-19T15:41:40.272Z,59.45
2023-03-19T15:44:10.791Z,59.31
2023-03-19T15:46:40.336Z,59.51
2023-03-19T15:49:12.150Z,59.73
2023-03-19T15:51:39.827Z,59.75
2023-03-19T15:54:07.426Z,59.33
2023-03-19T15:56:34.358Z,59.42
2023-03-19T15:59:01.026Z,59.53
2023-03-19T16:01:28.061Z,59.85
2023-03-19T16:04:01.050Z,59.54
2023-03-19T16:06:38.722Z,58.45
2023-03-19T16:09:31.862Z,58.17
2023-03-19T16:12:03.326Z,58.03
2023-03-19T16:14:29.735Z,58.11
2023-03-19T16:17:20.408Z,58.95
2023-03-19T16:19:49.715Z,58.03
2023-03-19T16:22:23.874Z,57.42
2023-03-19T16:24:51.868Z,57.28
2023-03-19T16:27:20.740Z,57.21
2023-03-19T16:29:49.132Z,57.48
2023-03-19T16:32:24.313Z,57.62
2023-03-19T16:34:51.997Z,57.69
2023-03-19T16:37:37.366Z,57.85
2023-03-19T16:40:23.973Z,58.26
2023-03-19T16:42:50.911Z,57.99
2023-03-19T16:45:17.536Z,58.55
2023-03-19T16:48:03.186Z,58.58
2023-03-19T16:50:36.421Z,58.66
2023-03-19T16:53:19.001Z,58.97
2023-03-19T16:55:45.461Z,59.31
2023-03-19T16:58:17.188Z,59.69
2023-03-19T17:00:44.340Z,60.09
2023-03-19T17:03:12.961Z,60.30
2023-03-19T17:05:39.395Z,61.16
2023-03-19T17:08:05.840Z,61.66
2023-03-19T17:10:33.402Z,61.93
2023-03-19T17:13:00.744Z,62.38
2023-03-19T17:15:29.930Z,62.83
2023-03-19T17:17:57.211Z,63.56
2023-03-19T17:20:36.976Z,63.37
2023-03-19T17:23:13.162Z,63.77
2023-03-19T17:25:39.927Z,63.76
2023-03-19T17:28:06.340Z,64.00
2023-03-19T17:30:33.746Z,64.23
2023-03-19T17:33:00.580Z,64.45
2023-03-19T17:35:27.251Z,64.63
2023-03-19T17:37:53.682Z,64.85
2023-03-19T17:40:29.273Z,65.27
2023-03-19T17:42:56.736Z,65.57
2023-03-19T17:45:29.804Z,65.75
2023-03-19T17:47:58.108Z,66.42
2023-03-19T17:50:27.394Z,66.20
2023-03-19T17:52:53.854Z,66.97
2023-03-19T17:55:25.901Z,67.13
2023-03-19T17:57:53.197Z,67.50
2023-03-19T18:00:21.636Z,68.49
2023-03-19T18:02:50.234Z,69.51
2023-03-19T18:05:22.058Z,70.68
2023-03-19T18:07:49.460Z,71.05
2023-03-19T18:10:23.122Z,71.26
2023-03-19T18:12:49.632Z,71.66
2023-03-19T18:15:16.536Z,71.88
2023-03-19T18:17:46.663Z,72.37
2023-03-19T18:20:15.599Z,72.63
2023-03-19T18:22:42.132Z,72.78
2023-03-19T18:25:27.205Z,73.44
2023-03-19T18:27:55.137Z,74.42
2023-03-19T18:30:22.822Z,74.63
2023-03-19T18:32:53.037Z,74.74
2023-03-19T18:35:31.831Z,74.90
2023-03-19T18:37:58.611Z,75.62
2023-03-19T18:40:28.772Z,75.94
2023-03-19T18:42:55.524Z,76.31
2023-03-19T18:45:22.114Z,76.08
2023-03-19T18:47:48.934Z,76.05
2023-03-19T18:50:20.616Z,76.26
2023-03-19T18:52:49.399Z,76.26
2023-03-19T18:55:16.256Z,76.51
2023-03-19T18:57:53.179Z,76.72
2023-03-19T19:00:23.629Z,77.13
2023-03-19T19:02:50.390Z,77.46
2023-03-19T19:05:26.816Z,77.54
2023-03-19T19:07:54.401Z,77.53
2023-03-19T19:10:20.934Z,77.51
2023-03-19T19:12:51.938Z,77.42
2023-03-19T19:15:25.013Z,77.23
2023-03-19T19:17:52.145Z,77.13
2023-03-19T19:20:21.737Z,76.88
2023-03-19T19:22:48.789Z,76.82
2023-03-19T19:25:17.277Z,76.62
2023-03-19T19:27:44.592Z,76.67
2023-03-19T19:30:16.344Z,76.64
2023-03-19T19:32:42.846Z,76.70
2023-03-19T19:35:23.070Z,76.65
2023-03-19T19:37:49.725Z,76.35
2023-03-19T19:40:21.815Z,76.52
2023-03-19T19:42:51.864Z,76.94
2023-03-19T19:45:33.513Z,77.19
2023-03-19T19:48:02.854Z,77.64
2023-03-19T19:50:29.328Z,77.93
2023-03-19T19:52:56.400Z,78.59
2023-03-19T19:55:24.317Z,79.03
2023-03-19T19:57:51.366Z,79.46
2023-03-19T20:00:29.721Z,79.46
2023-03-19T20:02:57.335Z,80.14
2023-03-19T20:05:26.551Z,80.34
2023-03-19T20:07:55.079Z,80.61
2023-03-19T20:10:23.525Z,80.85
2023-03-19T20:12:55.223Z,80.97
2023-03-19T20:15:25.063Z,81.24
2023-03-19T20:17:54.574Z,81.55
2023-03-19T20:20:28.718Z,81.73
2023-03-19T20:22:56.558Z,81.79
2023-03-19T20:25:25.338Z,82.06
2023-03-19T20:27:56.546Z,81.96
2023-03-19T20:30:27.394Z,81.94
2023-03-19T20:32:55.635Z,82.03
2023-03-19T20:35:27.270Z,82.13
2023-03-19T20:37:55.573Z,82.20
2023-03-19T20:40:31.161Z,81.99
2023-03-19T20:42:57.935Z,82.07
2023-03-19T20:45:27.366Z,82.04
2023-03-19T20:47:54.152Z,81.81
2023-03-19T20:50:26.140Z,81.63
2023-03-19T20:52:52.791Z,81.69
2023-03-19T20:55:21.464Z,81.77
2023-03-19T20:57:49.744Z,81.49
2023-03-19T21:00:22.157Z,81.53
2023-03-19T21:02:49.682Z,81.64
2023-03-19T21:05:16.727Z,81.08
2023-03-19T21:07:45.560Z,81.20
2023-03-19T21:10:21.478Z,81.25
2023-03-19T21:12:47.916Z,81.38
2023-03-19T21:15:14.662Z,81.09
2023-03-19T21:17:41.092Z,81.51
2023-03-19T21:20:08.232Z,81.64
2023-03-19T21:22:35.382Z,81.34
2023-03-19T21:25:07.003Z,81.23
2023-03-19T21:27:35.674Z,81.48
2023-03-19T21:30:04.691Z,81.19
2023-03-19T21:32:31.713Z,81.39
2023-03-19T21:34:58.302Z,81.53
2023-03-19T21:37:24.736Z,81.60
2023-03-19T21:39:51.165Z,81.63
2023-03-19T21:42:20.093Z,81.57
2023-03-19T21:44:47.849Z,81.90
2023-03-19T21:47:18.059Z,81.85
2023-03-19T21:49:44.781Z,81.88
2023-03-19T21:52:17.619Z,81.88
2023-03-19T21:54:44.049Z,81.97
2023-03-19T21:57:14.203Z,82.05
2023-03-19T21:59:41.289Z,82.39
2023-03-19T22:02:23.172Z,82.23
2023-03-19T22:04:49.637Z,82.42
2023-03-19T22:07:16.115Z,82.60
2023-03-19T22:09:42.645Z,82.87
2023-03-19T22:12:27.412Z,82.86
2023-03-19T22:14:54.388Z,82.88
2023-03-19T22:17:23.228Z,82.85
2023-03-19T22:19:49.631Z,82.58
2023-03-19T22:22:16.064Z,82.77
2023-03-19T22:24:42.466Z,82.73
2023-03-19T22:27:13.806Z,82.83
2023-03-19T22:29:40.744Z,83.02
2023-03-19T22:32:16.591Z,83.16
2023-03-19T22:34:43.694Z,83.24
2023-03-19T22:37:24.740Z,83.29
2023-03-19T22:39:51.181Z,83.48
2023-03-19T22:42:17.593Z,83.62
2023-03-19T22:44:44.105Z,83.44
2023-03-19T22:47:19.328Z,83.46
2023-03-19T22:49:45.934Z,83.55
2023-03-19T22:52:13.081Z,83.68
2023-03-19T22:54:40.337Z,84.12
2023-03-19T22:57:06.939Z,84.16
2023-03-19T22:59:33.368Z,84.19
2023-03-19T23:02:00.251Z,84.41
2023-03-19T23:04:30.052Z,84.60
2023-03-19T23:06:57.308Z,84.72
2023-03-19T23:09:29.483Z,84.85
2023-03-19T23:11:57.738Z,85.16
2023-03-19T23:14:30.129Z,85.06
2023-03-19T23:16:59.687Z,85.17
2023-03-19T23:19:31.828Z,85.50
2023-03-19T23:21:59.031Z,85.23
2023-03-19T23:24:25.963Z,85.15
2023-03-19T23:26:54.138Z,85.40
2023-03-19T23:29:29.705Z,85.68
2023-03-19T23:31:58.517Z,85.63
2023-03-19T23:34:25.947Z,85.43
2023-03-19T23:36:53.399Z,85.43
2023-03-19T23:39:20.945Z,85.67
2023-03-19T23:41:49.222Z,85.53
2023-03-19T23:44:17.671Z,85.50
2023-03-19T23:46:45.998Z,85.61
2023-03-19T23:49:14.676Z,85.39
2023-03-19T23:51:42.058Z,85.45
2023-03-19T23:54:28.549Z,85.62
2023-03-19T23:57:00.055Z,85.62
2023-03-19T23:59:32.028Z,85.64
